sensor_id;sensor_type;location;lat;lon;timestamp;temperature;humidity
63039;DHT22;49125;48.812;9.206;2022-10-16T00:00:38;17.10;99.90
63039;DHT22;49125;48.812;9.206;2022-10-16T00:03:04;17.10;99.90
63039;DHT22;49125;48.812;9.206;2022-10-16T00:05:30;17.10;99.90
63039;DHT22;49125;48.812;9.206;2022-10-16T00:07:55;17.10;99.90
63039;DHT22;49125;48.812;9.206;2022-10-16T00:10:21;17.00;99.90
63039;DHT22;49125;48.812;9.206;2022-10-16T00:12:47;17.00;99.90
63039;DHT22;49125;48.812;9.206;2022-10-16T00:15:12;16.90;99.90
63039;DHT22;49125;48.812;9.206;2022-10-16T00:17:38;16.90;99.90
63039;DHT22;49125;48.812;9.206;2022-10-16T00:20:04;16.80;99.90
63039;DHT22;49125;48.812;9.206;2022-10-16T00:22:30;16.80;99.90
63039;DHT22;49125;48.812;9.206;2022-10-16T00:24:55;16.70;99.90
63039;DHT22;49125;48.812;9.206;2022-10-16T00:27:21;16.70;99.90
63039;DHT22;49125;48.812;9.206;2022-10-16T00:29:51;16.60;99.90
63039;DHT22;49125;48.812;9.206;2022-10-16T00:32:18;16.60;99.90
63039;DHT22;49125;48.812;9.206;2022-10-16T00:34:43;16.50;99.90
63039;DHT22;49125;48.812;9.206;2022-10-16T00:37:09;16.50;99.90
63039;DHT22;49125;48.812;9.206;2022-10-16T00:39:35;16.40;99.90
63039;DHT22;49125;48.812;9.206;2022-10-16T00:42:00;16.40;99.90
63039;DHT22;49125;48.812;9.206;2022-10-16T00:44:51;16.40;99.90
63039;DHT22;49125;48.812;9.206;2022-10-16T00:47:21;16.30;99.90
63039;DHT22;49125;48.812;9.206;2022-10-16T00:49:50;16.30;99.90
63039;DHT22;49125;48.812;9.206;2022-10-16T00:52:17;16.30;99.90
63039;DHT22;49125;48.812;9.206;2022-10-16T00:54:43;16.30;99.90
63039;DHT22;49125;48.812;9.206;2022-10-16T00:57:09;16.30;99.90
63039;DHT22;49125;48.812;9.206;2022-10-16T00:59:38;16.30;99.90
63039;DHT22;49125;48.812;9.206;2022-10-16T01:02:06;16.30;99.90
63039;DHT22;49125;48.812;9.206;2022-10-16T01:04:36;16.20;99.90
63039;DHT22;49125;48.812;9.206;2022-10-16T01:07:09;16.30;99.90
63039;DHT22;49125;48.812;9.206;2022-10-16T01:15:17;16.40;99.90
63039;DHT22;49125;48.812;9.206;2022-10-16T01:20:33;16.50;99.90
63039;DHT22;49125;48.812;9.206;2022-10-16T01:26:30;16.50;99.90
63039;DHT22;49125;48.812;9.206;2022-10-16T01:29:06;16.50;99.90
63039;DHT22;49125;48.812;9.206;2022-10-16T01:31:36;16.50;99.90
63039;DHT22;49125;48.812;9.206;2022-10-16T01:34:18;16.40;99.90
63039;DHT22;49125;48.812;9.206;2022-10-16T01:36:50;16.40;99.90
63039;DHT22;49125;48.812;9.206;2022-10-16T01:39:20;16.40;99.90
63039;DHT22;49125;48.812;9.206;2022-10-16T01:41:51;16.50;99.90
63039;DHT22;49125;48.812;9.206;2022-10-16T01:44:23;16.50;99.90
63039;DHT22;49125;48.812;9.206;2022-10-16T01:46:52;16.50;99.90
63039;DHT22;49125;48.812;9.206;2022-10-16T01:49:20;16.50;99.90
63039;DHT22;49125;48.812;9.206;2022-10-16T01:51:49;16.50;99.90
63039;DHT22;49125;48.812;9.206;2022-10-16T01:54:18;16.50;99.90
63039;DHT22;49125;48.812;9.206;2022-10-16T01:56:47;16.50;99.90
63039;DHT22;49125;48.812;9.206;2022-10-16T01:59:16;16.50;99.90
63039;DHT22;49125;48.812;9.206;2022-10-16T02:01:48;16.50;99.90
63039;DHT22;49125;48.812;9.206;2022-10-16T02:04:42;16.50;99.90
63039;DHT22;49125;48.812;9.206;2022-10-16T02:07:09;16.60;99.90
63039;DHT22;49125;48.812;9.206;2022-10-16T02:09:35;16.60;99.90
63039;DHT22;49125;48.812;9.206;2022-10-16T02:12:08;16.60;99.90
63039;DHT22;49125;48.812;9.206;2022-10-16T02:14:38;16.60;99.90
63039;DHT22;49125;48.812;9.206;2022-10-16T02:17:11;16.60;99.90
63039;DHT22;49125;48.812;9.206;2022-10-16T02:19:37;16.60;99.90
63039;DHT22;49125;48.812;9.206;2022-10-16T02:22:06;16.60;99.90
63039;DHT22;49125;48.812;9.206;2022-10-16T02:30:06;16.60;99.90
63039;DHT22;49125;48.812;9.206;2022-10-16T02:32:34;16.70;99.90
63039;DHT22;49125;48.812;9.206;2022-10-16T02:35:01;16.60;99.90
63039;DHT22;49125;48.812;9.206;2022-10-16T02:37:28;16.60;99.90
63039;DHT22;49125;48.812;9.206;2022-10-16T02:39:56;16.60;99.90
63039;DHT22;49125;48.812;9.206;2022-10-16T02:42:28;16.60;99.90
63039;DHT22;49125;48.812;9.206;2022-10-16T02:44:55;16.60;99.90
63039;DHT22;49125;48.812;9.206;2022-10-16T02:47:20;16.60;99.90
63039;DHT22;49125;48.812;9.206;2022-10-16T02:49:46;16.60;99.90
63039;DHT22;49125;48.812;9.206;2022-10-16T02:52:11;16.60;99.90
63039;DHT22;49125;48.812;9.206;2022-10-16T02:54:37;16.60;99.90
63039;DHT22;49125;48.812;9.206;2022-10-16T02:57:02;16.60;99.90
63039;DHT22;49125;48.812;9.206;2022-10-16T02:59:28;16.50;99.90
63039;DHT22;49125;48.812;9.206;2022-10-16T03:01:53;16.40;99.90
63039;DHT22;49125;48.812;9.206;2022-10-16T03:04:19;16.40;99.90
63039;DHT22;49125;48.812;9.206;2022-10-16T03:06:44;16.40;99.90
63039;DHT22;49125;48.812;9.206;2022-10-16T03:09:10;16.40;99.90
63039;DHT22;49125;48.812;9.206;2022-10-16T03:11:35;16.40;99.90
63039;DHT22;49125;48.812;9.206;2022-10-16T03:14:01;16.30;99.90
63039;DHT22;49125;48.812;9.206;2022-10-16T03:16:27;16.20;99.90
63039;DHT22;49125;48.812;9.206;2022-10-16T03:18:52;16.20;99.90
63039;DHT22;49125;48.812;9.206;2022-10-16T03:21:18;16.20;99.90
63039;DHT22;49125;48.812;9.206;2022-10-16T03:23:43;16.20;99.90
63039;DHT22;49125;48.812;9.206;2022-10-16T03:26:09;16.20;99.90
63039;DHT22;49125;48.812;9.206;2022-10-16T03:28:34;16.10;99.90
63039;DHT22;49125;48.812;9.206;2022-10-16T03:31:00;16.10;99.90
63039;DHT22;49125;48.812;9.206;2022-10-16T03:33:25;16.10;99.90
63039;DHT22;49125;48.812;9.206;2022-10-16T03:35:52;16.00;99.90
63039;DHT22;49125;48.812;9.206;2022-10-16T03:38:18;16.00;99.90
63039;DHT22;49125;48.812;9.206;2022-10-16T03:40:44;15.90;99.90
63039;DHT22;49125;48.812;9.206;2022-10-16T03:43:10;15.90;99.90
63039;DHT22;49125;48.812;9.206;2022-10-16T03:45:35;15.90;99.90
63039;DHT22;49125;48.812;9.206;2022-10-16T03:48:01;15.90;99.90
63039;DHT22;49125;48.812;9.206;2022-10-16T03:50:28;15.90;99.90
63039;DHT22;49125;48.812;9.206;2022-10-16T03:52:54;15.90;99.90
63039;DHT22;49125;48.812;9.206;2022-10-16T03:55:20;15.90;99.90
63039;DHT22;49125;48.812;9.206;2022-10-16T03:57:45;15.80;99.90
63039;DHT22;49125;48.812;9.206;2022-10-16T04:00:11;15.80;99.90
63039;DHT22;49125;48.812;9.206;2022-10-16T04:02:37;15.80;99.90
63039;DHT22;49125;48.812;9.206;2022-10-16T04:05:02;15.80;99.90
63039;DHT22;49125;48.812;9.206;2022-10-16T04:07:28;15.80;99.90
63039;DHT22;49125;48.812;9.206;2022-10-16T04:09:54;15.80;99.90
63039;DHT22;49125;48.812;9.206;2022-10-16T04:12:19;15.80;99.90
63039;DHT22;49125;48.812;9.206;2022-10-16T04:14:45;15.80;99.90
63039;DHT22;49125;48.812;9.206;2022-10-16T04:17:10;15.70;99.90
63039;DHT22;49125;48.812;9.206;2022-10-16T04:19:36;15.60;99.90
63039;DHT22;49125;48.812;9.206;2022-10-16T04:22:02;15.70;99.90
63039;DHT22;49125;48.812;9.206;2022-10-16T04:24:28;15.60;99.90
63039;DHT22;49125;48.812;9.206;2022-10-16T04:26:53;15.60;99.90
63039;DHT22;49125;48.812;9.206;2022-10-16T04:29:19;15.50;99.90
63039;DHT22;49125;48.812;9.206;2022-10-16T04:31:44;15.50;99.90
63039;DHT22;49125;48.812;9.206;2022-10-16T04:34:10;15.50;99.90
63039;DHT22;49125;48.812;9.206;2022-10-16T04:36:35;15.40;99.90
63039;DHT22;49125;48.812;9.206;2022-10-16T04:39:01;15.40;99.90
63039;DHT22;49125;48.812;9.206;2022-10-16T04:41:27;15.40;99.90
63039;DHT22;49125;48.812;9.206;2022-10-16T04:43:52;15.40;99.90
63039;DHT22;49125;48.812;9.206;2022-10-16T04:46:18;15.40;99.90
63039;DHT22;49125;48.812;9.206;2022-10-16T04:48:43;15.50;99.90
63039;DHT22;49125;48.812;9.206;2022-10-16T04:51:09;15.50;99.90
63039;DHT22;49125;48.812;9.206;2022-10-16T04:53:35;15.40;99.90
63039;DHT22;49125;48.812;9.206;2022-10-16T04:56:00;15.50;99.90
63039;DHT22;49125;48.812;9.206;2022-10-16T04:58:26;15.50;99.90
63039;DHT22;49125;48.812;9.206;2022-10-16T05:00:51;15.50;99.90
63039;DHT22;49125;48.812;9.206;2022-10-16T05:03:17;15.50;99.90
63039;DHT22;49125;48.812;9.206;2022-10-16T05:05:44;15.50;99.90
63039;DHT22;49125;48.812;9.206;2022-10-16T05:08:10;15.60;99.90
63039;DHT22;49125;48.812;9.206;2022-10-16T05:10:36;15.60;99.90
63039;DHT22;49125;48.812;9.206;2022-10-16T05:13:02;15.60;99.90
63039;DHT22;49125;48.812;9.206;2022-10-16T05:15:27;15.60;99.90
63039;DHT22;49125;48.812;9.206;2022-10-16T05:17:54;15.50;99.90
63039;DHT22;49125;48.812;9.206;2022-10-16T05:20:20;15.60;99.90
63039;DHT22;49125;48.812;9.206;2022-10-16T05:22:45;15.50;99.90
63039;DHT22;49125;48.812;9.206;2022-10-16T05:25:11;15.50;99.90
63039;DHT22;49125;48.812;9.206;2022-10-16T05:27:36;15.50;99.90
63039;DHT22;49125;48.812;9.206;2022-10-16T05:30:02;15.50;99.90
63039;DHT22;49125;48.812;9.206;2022-10-16T05:32:28;15.50;99.90
63039;DHT22;49125;48.812;9.206;2022-10-16T05:34:54;15.40;99.90
63039;DHT22;49125;48.812;9.206;2022-10-16T05:37:19;15.40;99.90
63039;DHT22;49125;48.812;9.206;2022-10-16T05:39:45;15.30;99.90
63039;DHT22;49125;48.812;9.206;2022-10-16T05:42:10;15.40;99.90
63039;DHT22;49125;48.812;9.206;2022-10-16T05:44:36;15.30;99.90
63039;DHT22;49125;48.812;9.206;2022-10-16T05:47:01;15.30;99.90
63039;DHT22;49125;48.812;9.206;2022-10-16T05:49:27;15.30;99.90
63039;DHT22;49125;48.812;9.206;2022-10-16T05:51:53;15.40;99.90
63039;DHT22;49125;48.812;9.206;2022-10-16T05:54:18;15.40;99.90
63039;DHT22;49125;48.812;9.206;2022-10-16T05:56:44;15.40;99.90
63039;DHT22;49125;48.812;9.206;2022-10-16T05:59:09;15.40;99.90
63039;DHT22;49125;48.812;9.206;2022-10-16T06:01:35;15.40;99.90
63039;DHT22;49125;48.812;9.206;2022-10-16T06:04:01;15.40;99.90
63039;DHT22;49125;48.812;9.206;2022-10-16T06:06:27;15.50;99.90
63039;DHT22;49125;48.812;9.206;2022-10-16T06:08:54;15.50;99.90
63039;DHT22;49125;48.812;9.206;2022-10-16T06:11:28;15.50;99.90
63039;DHT22;49125;48.812;9.206;2022-10-16T06:13:56;15.50;99.90
63039;DHT22;49125;48.812;9.206;2022-10-16T06:16:24;15.60;99.90
63039;DHT22;49125;48.812;9.206;2022-10-16T06:18:53;15.60;99.90
63039;DHT22;49125;48.812;9.206;2022-10-16T06:21:23;15.70;99.90
63039;DHT22;49125;48.812;9.206;2022-10-16T06:23:50;15.70;99.90
63039;DHT22;49125;48.812;9.206;2022-10-16T06:26:19;15.70;99.90
63039;DHT22;49125;48.812;9.206;2022-10-16T06:28:45;15.70;99.90
63039;DHT22;49125;48.812;9.206;2022-10-16T06:31:12;15.70;99.90
63039;DHT22;49125;48.812;9.206;2022-10-16T06:33:39;15.80;99.90
63039;DHT22;49125;48.812;9.206;2022-10-16T06:36:15;15.80;99.90
63039;DHT22;49125;48.812;9.206;2022-10-16T06:38:43;15.80;99.90
63039;DHT22;49125;48.812;9.206;2022-10-16T06:41:14;15.90;99.90
63039;DHT22;49125;48.812;9.206;2022-10-16T06:43:41;15.90;99.90
63039;DHT22;49125;48.812;9.206;2022-10-16T06:46:09;16.00;99.90
63039;DHT22;49125;48.812;9.206;2022-10-16T06:48:35;16.10;99.90
63039;DHT22;49125;48.812;9.206;2022-10-16T06:53:29;16.20;99.90
63039;DHT22;49125;48.812;9.206;2022-10-16T06:55:56;16.30;99.90
63039;DHT22;49125;48.812;9.206;2022-10-16T06:58:22;16.40;99.90
63039;DHT22;49125;48.812;9.206;2022-10-16T07:00:48;16.50;99.90
63039;DHT22;49125;48.812;9.206;2022-10-16T07:03:14;16.50;99.90
63039;DHT22;49125;48.812;9.206;2022-10-16T07:05:41;16.50;99.90
63039;DHT22;49125;48.812;9.206;2022-10-16T07:08:07;16.60;99.90
63039;DHT22;49125;48.812;9.206;2022-10-16T07:10:34;16.70;99.90
63039;DHT22;49125;48.812;9.206;2022-10-16T07:12:59;16.80;99.90
63039;DHT22;49125;48.812;9.206;2022-10-16T07:15:26;17.00;99.90
63039;DHT22;49125;48.812;9.206;2022-10-16T07:17:52;17.10;99.90
63039;DHT22;49125;48.812;9.206;2022-10-16T07:20:18;17.20;99.90
63039;DHT22;49125;48.812;9.206;2022-10-16T07:22:43;17.30;99.90
63039;DHT22;49125;48.812;9.206;2022-10-16T07:25:09;17.40;99.90
63039;DHT22;49125;48.812;9.206;2022-10-16T07:27:35;17.30;99.90
63039;DHT22;49125;48.812;9.206;2022-10-16T07:30:00;17.30;99.90
63039;DHT22;49125;48.812;9.206;2022-10-16T07:32:26;17.30;99.90
63039;DHT22;49125;48.812;9.206;2022-10-16T07:34:52;17.30;99.90
63039;DHT22;49125;48.812;9.206;2022-10-16T07:37:18;17.30;99.90
63039;DHT22;49125;48.812;9.206;2022-10-16T07:39:43;17.30;99.90
63039;DHT22;49125;48.812;9.206;2022-10-16T07:42:09;17.30;99.90
63039;DHT22;49125;48.812;9.206;2022-10-16T07:44:35;17.30;99.90
63039;DHT22;49125;48.812;9.206;2022-10-16T07:47:01;17.30;99.90
63039;DHT22;49125;48.812;9.206;2022-10-16T07:49:27;17.30;99.90
63039;DHT22;49125;48.812;9.206;2022-10-16T07:51:52;17.40;99.90
63039;DHT22;49125;48.812;9.206;2022-10-16T07:54:18;17.50;99.90
63039;DHT22;49125;48.812;9.206;2022-10-16T07:56:43;17.50;99.90
63039;DHT22;49125;48.812;9.206;2022-10-16T07:59:09;17.60;99.90
63039;DHT22;49125;48.812;9.206;2022-10-16T08:01:34;17.60;99.90
63039;DHT22;49125;48.812;9.206;2022-10-16T08:04:00;17.60;99.90
63039;DHT22;49125;48.812;9.206;2022-10-16T08:06:25;17.70;99.90
63039;DHT22;49125;48.812;9.206;2022-10-16T08:08:51;17.80;99.90
63039;DHT22;49125;48.812;9.206;2022-10-16T08:11:17;17.90;99.90
63039;DHT22;49125;48.812;9.206;2022-10-16T08:13:43;17.90;99.90
63039;DHT22;49125;48.812;9.206;2022-10-16T08:16:08;18.10;99.90
63039;DHT22;49125;48.812;9.206;2022-10-16T08:18:36;18.20;99.90
63039;DHT22;49125;48.812;9.206;2022-10-16T08:21:02;18.40;99.90
63039;DHT22;49125;48.812;9.206;2022-10-16T08:23:29;18.60;99.90
63039;DHT22;49125;48.812;9.206;2022-10-16T08:25:56;18.80;99.90
63039;DHT22;49125;48.812;9.206;2022-10-16T08:28:23;19.00;99.90
63039;DHT22;49125;48.812;9.206;2022-10-16T08:30:48;19.10;99.90
63039;DHT22;49125;48.812;9.206;2022-10-16T08:33:14;19.20;99.90
63039;DHT22;49125;48.812;9.206;2022-10-16T08:35:40;19.30;99.90
63039;DHT22;49125;48.812;9.206;2022-10-16T08:38:06;19.50;99.90
63039;DHT22;49125;48.812;9.206;2022-10-16T08:40:33;19.70;99.90
63039;DHT22;49125;48.812;9.206;2022-10-16T08:46:22;19.80;99.90
63039;DHT22;49125;48.812;9.206;2022-10-16T08:48:53;19.70;99.90
63039;DHT22;49125;48.812;9.206;2022-10-16T08:51:25;19.70;99.90
63039;DHT22;49125;48.812;9.206;2022-10-16T08:54:01;19.70;99.90
63039;DHT22;49125;48.812;9.206;2022-10-16T08:56:28;19.60;99.90
63039;DHT22;49125;48.812;9.206;2022-10-16T08:58:54;19.70;99.90
63039;DHT22;49125;48.812;9.206;2022-10-16T09:01:22;19.70;99.90
63039;DHT22;49125;48.812;9.206;2022-10-16T09:04:13;19.70;99.90
63039;DHT22;49125;48.812;9.206;2022-10-16T09:06:54;19.60;99.90
63039;DHT22;49125;48.812;9.206;2022-10-16T09:17:13;20.10;99.90
63039;DHT22;49125;48.812;9.206;2022-10-16T09:19:54;20.20;99.90
63039;DHT22;49125;48.812;9.206;2022-10-16T09:22:24;20.30;99.90
63039;DHT22;49125;48.812;9.206;2022-10-16T09:24:51;20.50;99.90
63039;DHT22;49125;48.812;9.206;2022-10-16T09:27:17;20.70;99.90
63039;DHT22;49125;48.812;9.206;2022-10-16T09:29:42;20.90;99.90
63039;DHT22;49125;48.812;9.206;2022-10-16T09:32:16;21.10;99.90
63039;DHT22;49125;48.812;9.206;2022-10-16T09:34:54;21.20;99.90
63039;DHT22;49125;48.812;9.206;2022-10-16T09:37:22;21.10;99.90
63039;DHT22;49125;48.812;9.206;2022-10-16T09:39:51;21.10;99.90
63039;DHT22;49125;48.812;9.206;2022-10-16T09:44:47;21.10;99.90
63039;DHT22;49125;48.812;9.206;2022-10-16T09:47:21;21.10;99.90
63039;DHT22;49125;48.812;9.206;2022-10-16T09:49:59;21.10;99.90
63039;DHT22;49125;48.812;9.206;2022-10-16T09:52:29;21.10;99.90
63039;DHT22;49125;48.812;9.206;2022-10-16T09:54:57;21.10;99.90
63039;DHT22;49125;48.812;9.206;2022-10-16T09:57:23;21.30;99.90
63039;DHT22;49125;48.812;9.206;2022-10-16T09:59:56;21.70;99.90
63039;DHT22;49125;48.812;9.206;2022-10-16T10:02:35;22.30;99.90
63039;DHT22;49125;48.812;9.206;2022-10-16T10:05:02;22.60;99.90
63039;DHT22;49125;48.812;9.206;2022-10-16T10:07:43;22.70;99.90
63039;DHT22;49125;48.812;9.206;2022-10-16T10:10:41;23.10;99.90
63039;DHT22;49125;48.812;9.206;2022-10-16T10:13:20;23.20;99.90
63039;DHT22;49125;48.812;9.206;2022-10-16T10:15:47;23.30;99.90
63039;DHT22;49125;48.812;9.206;2022-10-16T10:18:20;23.40;99.90
63039;DHT22;49125;48.812;9.206;2022-10-16T10:21:01;23.40;99.90
63039;DHT22;49125;48.812;9.206;2022-10-16T10:23:28;23.60;99.90
63039;DHT22;49125;48.812;9.206;2022-10-16T10:26:14;23.70;99.30
63039;DHT22;49125;48.812;9.206;2022-10-16T10:31:34;23.90;99.50
63039;DHT22;49125;48.812;9.206;2022-10-16T10:34:05;24.10;99.20
63039;DHT22;49125;48.812;9.206;2022-10-16T10:36:38;24.50;99.70
63039;DHT22;49125;48.812;9.206;2022-10-16T10:39:27;25.20;99.30
63039;DHT22;49125;48.812;9.206;2022-10-16T10:51:07;27.30;96.30
63039;DHT22;49125;48.812;9.206;2022-10-16T10:53:50;27.60;95.70
63039;DHT22;49125;48.812;9.206;2022-10-16T10:59:30;29.20;94.10
63039;DHT22;49125;48.812;9.206;2022-10-16T11:04:29;29.80;92.50
63039;DHT22;49125;48.812;9.206;2022-10-16T11:07:05;29.90;91.30
63039;DHT22;49125;48.812;9.206;2022-10-16T11:09:37;30.10;90.90
63039;DHT22;49125;48.812;9.206;2022-10-16T11:12:27;30.30;86.60
63039;DHT22;49125;48.812;9.206;2022-10-16T11:15:14;30.70;86.40
63039;DHT22;49125;48.812;9.206;2022-10-16T11:17:46;31.10;81.30
63039;DHT22;49125;48.812;9.206;2022-10-16T11:20:18;31.20;83.20
63039;DHT22;49125;48.812;9.206;2022-10-16T11:22:52;31.70;80.80
63039;DHT22;49125;48.812;9.206;2022-10-16T11:25:20;32.10;73.00
63039;DHT22;49125;48.812;9.206;2022-10-16T11:30:50;33.30;75.50
63039;DHT22;49125;48.812;9.206;2022-10-16T11:33:27;33.60;68.80
63039;DHT22;49125;48.812;9.206;2022-10-16T11:36:11;33.30;65.90
63039;DHT22;49125;48.812;9.206;2022-10-16T11:43:42;32.40;70.20
63039;DHT22;49125;48.812;9.206;2022-10-16T11:46:12;32.10;67.10
63039;DHT22;49125;48.812;9.206;2022-10-16T11:48:52;32.30;65.40
63039;DHT22;49125;48.812;9.206;2022-10-16T11:51:40;32.80;67.50
63039;DHT22;49125;48.812;9.206;2022-10-16T11:54:17;33.50;62.30
63039;DHT22;49125;48.812;9.206;2022-10-16T11:56:48;33.70;63.30
63039;DHT22;49125;48.812;9.206;2022-10-16T11:59:18;34.20;57.00
63039;DHT22;49125;48.812;9.206;2022-10-16T12:01:51;34.40;58.20
63039;DHT22;49125;48.812;9.206;2022-10-16T12:04:43;34.70;60.90
63039;DHT22;49125;48.812;9.206;2022-10-16T12:07:37;35.00;58.90
63039;DHT22;49125;48.812;9.206;2022-10-16T12:10:23;35.40;57.20
63039;DHT22;49125;48.812;9.206;2022-10-16T12:12:49;35.70;56.60
63039;DHT22;49125;48.812;9.206;2022-10-16T12:15:25;35.00;51.50
63039;DHT22;49125;48.812;9.206;2022-10-16T12:17:51;34.60;55.90
63039;DHT22;49125;48.812;9.206;2022-10-16T12:20:22;34.70;58.50
63039;DHT22;49125;48.812;9.206;2022-10-16T12:22:57;34.50;57.00
63039;DHT22;49125;48.812;9.206;2022-10-16T12:25:35;33.60;57.40
63039;DHT22;49125;48.812;9.206;2022-10-16T12:30:41;32.00;59.30
63039;DHT22;49125;48.812;9.206;2022-10-16T12:33:31;32.10;58.20
63039;DHT22;49125;48.812;9.206;2022-10-16T12:36:00;32.80;59.80
63039;DHT22;49125;48.812;9.206;2022-10-16T12:38:51;33.50;61.40
63039;DHT22;49125;48.812;9.206;2022-10-16T12:41:31;33.40;56.70
63039;DHT22;49125;48.812;9.206;2022-10-16T12:43:57;33.40;59.00
63039;DHT22;49125;48.812;9.206;2022-10-16T12:46:35;33.90;56.60
63039;DHT22;49125;48.812;9.206;2022-10-16T12:51:42;34.00;57.40
63039;DHT22;49125;48.812;9.206;2022-10-16T12:54:16;33.10;56.80
63039;DHT22;49125;48.812;9.206;2022-10-16T12:56:56;32.30;57.50
63039;DHT22;49125;48.812;9.206;2022-10-16T12:59:42;32.00;59.00
63039;DHT22;49125;48.812;9.206;2022-10-16T13:02:19;32.30;58.20
63039;DHT22;49125;48.812;9.206;2022-10-16T13:05:21;32.30;57.50
63039;DHT22;49125;48.812;9.206;2022-10-16T13:08:05;31.80;58.30
63039;DHT22;49125;48.812;9.206;2022-10-16T13:10:56;31.00;58.60
63039;DHT22;49125;48.812;9.206;2022-10-16T13:13:56;30.50;60.10
63039;DHT22;49125;48.812;9.206;2022-10-16T13:27:59;30.00;61.30
63039;DHT22;49125;48.812;9.206;2022-10-16T13:30:26;29.60;63.10
63039;DHT22;49125;48.812;9.206;2022-10-16T13:33:06;29.30;62.80
63039;DHT22;49125;48.812;9.206;2022-10-16T13:35:35;28.90;62.10
63039;DHT22;49125;48.812;9.206;2022-10-16T13:38:21;28.50;63.50
63039;DHT22;49125;48.812;9.206;2022-10-16T13:41:12;28.20;62.20
63039;DHT22;49125;48.812;9.206;2022-10-16T13:43:45;28.00;62.60
63039;DHT22;49125;48.812;9.206;2022-10-16T13:46:24;27.80;65.80
63039;DHT22;49125;48.812;9.206;2022-10-16T13:51:27;27.40;68.20
63039;DHT22;49125;48.812;9.206;2022-10-16T13:53:55;27.30;67.80
63039;DHT22;49125;48.812;9.206;2022-10-16T13:56:22;27.20;67.80
63039;DHT22;49125;48.812;9.206;2022-10-16T13:59:21;27.10;65.00
63039;DHT22;49125;48.812;9.206;2022-10-16T14:01:47;27.10;67.70
63039;DHT22;49125;48.812;9.206;2022-10-16T14:04:14;26.90;67.50
63039;DHT22;49125;48.812;9.206;2022-10-16T14:06:45;26.80;68.60
63039;DHT22;49125;48.812;9.206;2022-10-16T14:09:22;26.50;70.60
63039;DHT22;49125;48.812;9.206;2022-10-16T14:11:50;26.20;72.10
63039;DHT22;49125;48.812;9.206;2022-10-16T14:14:18;26.00;74.10
63039;DHT22;49125;48.812;9.206;2022-10-16T14:16:44;25.70;73.90
63039;DHT22;49125;48.812;9.206;2022-10-16T14:19:22;25.50;76.80
63039;DHT22;49125;48.812;9.206;2022-10-16T14:21:50;25.30;76.90
63039;DHT22;49125;48.812;9.206;2022-10-16T14:24:32;25.10;79.20
63039;DHT22;49125;48.812;9.206;2022-10-16T14:26:59;25.00;80.50
63039;DHT22;49125;48.812;9.206;2022-10-16T14:29:26;24.90;80.00
63039;DHT22;49125;48.812;9.206;2022-10-16T14:32:05;24.90;81.90
63039;DHT22;49125;48.812;9.206;2022-10-16T14:34:37;24.80;82.80
63039;DHT22;49125;48.812;9.206;2022-10-16T14:37:28;24.80;84.40
63039;DHT22;49125;48.812;9.206;2022-10-16T14:39:55;24.70;85.40
63039;DHT22;49125;48.812;9.206;2022-10-16T14:42:23;24.60;86.40
63039;DHT22;49125;48.812;9.206;2022-10-16T14:44:51;24.50;87.70
63039;DHT22;49125;48.812;9.206;2022-10-16T14:47:25;24.40;88.20
63039;DHT22;49125;48.812;9.206;2022-10-16T14:49:52;24.30;89.40
63039;DHT22;49125;48.812;9.206;2022-10-16T14:52:20;24.30;90.30
63039;DHT22;49125;48.812;9.206;2022-10-16T14:54:49;24.30;90.60
63039;DHT22;49125;48.812;9.206;2022-10-16T14:57:21;24.30;91.10
63039;DHT22;49125;48.812;9.206;2022-10-16T14:59:48;24.30;91.20
63039;DHT22;49125;48.812;9.206;2022-10-16T15:02:29;24.20;90.00
63039;DHT22;49125;48.812;9.206;2022-10-16T15:04:55;24.10;91.00
63039;DHT22;49125;48.812;9.206;2022-10-16T15:07:21;24.10;91.30
63039;DHT22;49125;48.812;9.206;2022-10-16T15:09:47;24.00;91.70
63039;DHT22;49125;48.812;9.206;2022-10-16T15:12:12;24.00;92.10
63039;DHT22;49125;48.812;9.206;2022-10-16T15:14:38;23.90;92.50
63039;DHT22;49125;48.812;9.206;2022-10-16T15:17:03;23.90;92.90
63039;DHT22;49125;48.812;9.206;2022-10-16T15:19:29;23.90;93.20
63039;DHT22;49125;48.812;9.206;2022-10-16T15:21:55;23.90;93.70
63039;DHT22;49125;48.812;9.206;2022-10-16T15:24:21;23.80;93.80
63039;DHT22;49125;48.812;9.206;2022-10-16T15:26:47;23.70;94.20
63039;DHT22;49125;48.812;9.206;2022-10-16T15:29:12;23.70;94.40
63039;DHT22;49125;48.812;9.206;2022-10-16T15:31:38;23.50;94.40
63039;DHT22;49125;48.812;9.206;2022-10-16T15:34:09;23.40;95.00
63039;DHT22;49125;48.812;9.206;2022-10-16T15:36:37;23.30;95.10
63039;DHT22;49125;48.812;9.206;2022-10-16T15:39:04;23.20;95.30
63039;DHT22;49125;48.812;9.206;2022-10-16T15:41:30;23.00;95.80
63039;DHT22;49125;48.812;9.206;2022-10-16T15:43:55;23.00;96.00
63039;DHT22;49125;48.812;9.206;2022-10-16T15:46:22;22.90;96.30
63039;DHT22;49125;48.812;9.206;2022-10-16T15:48:50;22.70;96.60
63039;DHT22;49125;48.812;9.206;2022-10-16T15:51:16;22.60;97.00
63039;DHT22;49125;48.812;9.206;2022-10-16T15:53:42;22.50;97.40
63039;DHT22;49125;48.812;9.206;2022-10-16T15:56:10;22.40;97.70
63039;DHT22;49125;48.812;9.206;2022-10-16T15:58:36;22.30;98.00
63039;DHT22;49125;48.812;9.206;2022-10-16T16:01:02;22.20;98.30
63039;DHT22;49125;48.812;9.206;2022-10-16T16:03:29;22.20;98.50
63039;DHT22;49125;48.812;9.206;2022-10-16T16:05:55;22.10;98.80
63039;DHT22;49125;48.812;9.206;2022-10-16T16:08:21;22.00;98.90
63039;DHT22;49125;48.812;9.206;2022-10-16T16:11:10;21.90;99.10
63039;DHT22;49125;48.812;9.206;2022-10-16T16:13:36;21.70;99.70
63039;DHT22;49125;48.812;9.206;2022-10-16T16:16:08;21.60;99.70
63039;DHT22;49125;48.812;9.206;2022-10-16T16:18:34;21.40;99.90
63039;DHT22;49125;48.812;9.206;2022-10-16T16:21:00;21.30;99.90
63039;DHT22;49125;48.812;9.206;2022-10-16T16:23:25;21.10;99.90
63039;DHT22;49125;48.812;9.206;2022-10-16T16:28:32;20.80;99.90
63039;DHT22;49125;48.812;9.206;2022-10-16T16:30:57;20.60;99.90
63039;DHT22;49125;48.812;9.206;2022-10-16T16:33:23;20.50;99.90
63039;DHT22;49125;48.812;9.206;2022-10-16T16:35:49;20.40;99.90
63039;DHT22;49125;48.812;9.206;2022-10-16T16:38:14;20.20;99.90
63039;DHT22;49125;48.812;9.206;2022-10-16T16:40:40;20.10;99.90
63039;DHT22;49125;48.812;9.206;2022-10-16T16:43:05;20.00;99.90
63039;DHT22;49125;48.812;9.206;2022-10-16T16:45:35;20.00;99.90
63039;DHT22;49125;48.812;9.206;2022-10-16T16:48:01;19.90;99.90
63039;DHT22;49125;48.812;9.206;2022-10-16T16:50:26;19.80;99.90
63039;DHT22;49125;48.812;9.206;2022-10-16T16:52:52;19.80;99.90
63039;DHT22;49125;48.812;9.206;2022-10-16T16:55:17;19.70;99.90
63039;DHT22;49125;48.812;9.206;2022-10-16T16:57:43;19.60;99.90
63039;DHT22;49125;48.812;9.206;2022-10-16T17:00:09;19.50;99.90
63039;DHT22;49125;48.812;9.206;2022-10-16T17:02:34;19.50;99.90
63039;DHT22;49125;48.812;9.206;2022-10-16T17:05:00;19.40;99.90